Time;durP1;ratioP1;P1;durP2;ratioP2;P2;SDS_P1;SDS_P2;PMS_P1;PMS_P2;Temp;Humidity;BMP_temperature;BMP_pressure;BME280_temperature;BME280_humidity;BME280_pressure;Samples;Min_cycle;Max_cycle;Signal;HPM_P1;HPM_P2
2021/10/03 00:00:45;;;;;;;5.93;5.72;;;;;;;;;;5034324;28;20103;-60
2021/10/03 00:03:15;;;;;;;6.60;5.82;;;;;;;;;;5032586;28;20132;-60
2021/10/03 00:05:42;;;;;;;6.88;6.47;;;;;;;;;;5029227;28;20096;-60
2021/10/03 00:08:09;;;;;;;6.05;5.70;;;;;;;;;;5031671;28;20128;-60
2021/10/03 00:10:35;;;;;;;5.82;5.63;;;;;;;;;;5023742;28;20112;-61
2021/10/03 00:13:05;;;;;;;6.28;5.97;;;;;;;;;;5035479;28;20049;-60
2021/10/03 00:15:34;;;;;;;7.30;6.78;;;;;;;;;;5030576;28;20054;-60
2021/10/03 00:18:02;;;;;;;6.35;5.95;;;;;;;;;;5034094;28;20072;-61
2021/10/03 00:20:29;;;;;;;6.30;6.05;;;;;;;;;;5034240;28;20091;-61
2021/10/03 00:22:56;;;;;;;7.10;6.55;;;;;;;;;;5026669;28;20097;-59
2021/10/03 00:25:25;;;;;;;6.32;6.13;;;;;;;;;;5030564;28;20061;-62
2021/10/03 00:27:53;;;;;;;7.63;7.22;;;;;;;;;;5032090;28;20091;-61
2021/10/03 00:30:21;;;;;;;8.27;7.68;;;;;;;;;;5033757;28;20072;-59
2021/10/03 00:32:48;;;;;;;7.57;6.90;;;;;;;;;;5033960;28;20041;-60
2021/10/03 00:35:15;;;;;;;7.78;6.82;;;;;;;;;;5031588;28;20038;-61
2021/10/03 00:37:42;;;;;;;6.80;6.43;;;;;;;;;;5026465;28;20033;-60
2021/10/03 00:40:09;;;;;;;7.93;7.40;;;;;;;;;;5030726;28;20117;-61
2021/10/03 00:42:36;;;;;;;8.23;7.45;;;;;;;;;;5031037;28;20037;-61
2021/10/03 00:45:04;;;;;;;6.20;5.72;;;;;;;;;;5032461;28;20041;-61
2021/10/03 00:47:31;;;;;;;7.15;6.80;;;;;;;;;;5029458;28;20636;-62
2021/10/03 00:49:58;;;;;;;7.35;6.95;;;;;;;;;;5015090;28;20469;-60
2021/10/03 00:52:24;;;;;;;8.15;7.75;;;;;;;;;;5033071;28;20038;-61
2021/10/03 00:54:51;;;;;;;7.22;6.72;;;;;;;;;;5031046;28;20065;-61
2021/10/03 00:57:18;;;;;;;8.52;8.02;;;;;;;;;;5032279;28;20149;-58
2021/10/03 00:59:45;;;;;;;7.78;7.28;;;;;;;;;;5031366;28;20532;-61
2021/10/03 01:02:11;;;;;;;8.02;7.47;;;;;;;;;;5030218;28;20128;-59
2021/10/03 01:04:38;;;;;;;6.90;6.40;;;;;;;;;;5032412;28;20041;-61
2021/10/03 01:07:05;;;;;;;6.95;6.47;;;;;;;;;;5026745;28;20064;-61
2021/10/03 01:09:32;;;;;;;7.93;7.25;;;;;;;;;;5031951;28;20087;-61
2021/10/03 01:11:59;;;;;;;7.70;7.32;;;;;;;;;;5030021;28;20037;-61
2021/10/03 01:14:25;;;;;;;7.32;6.93;;;;;;;;;;5031005;28;20114;-60
2021/10/03 01:16:52;;;;;;;6.57;6.28;;;;;;;;;;5032136;28;20138;-60
2021/10/03 01:19:19;;;;;;;8.18;7.40;;;;;;;;;;5030836;28;20128;-61
2021/10/03 01:21:46;;;;;;;7.18;6.65;;;;;;;;;;5032180;28;20072;-62
2021/10/03 01:24:13;;;;;;;7.95;7.35;;;;;;;;;;5031192;28;20072;-61
2021/10/03 01:26:41;;;;;;;7.88;7.30;;;;;;;;;;5031389;28;20038;-61
2021/10/03 01:29:08;;;;;;;8.38;7.72;;;;;;;;;;5031940;28;20486;-62
2021/10/03 01:31:34;;;;;;;7.43;6.80;;;;;;;;;;5031065;28;20725;-61
2021/10/03 01:34:01;;;;;;;7.65;7.25;;;;;;;;;;5032201;28;20432;-58
2021/10/03 01:36:28;;;;;;;8.73;8.10;;;;;;;;;;5030017;28;20437;-61
2021/10/03 01:38:55;;;;;;;10.18;8.45;;;;;;;;;;5028871;28;20099;-62
2021/10/03 01:41:22;;;;;;;7.88;6.82;;;;;;;;;;4992640;28;1130059;-63
2021/10/03 01:43:48;;;;;;;6.93;6.60;;;;;;;;;;5031339;28;20085;-59
2021/10/03 01:46:15;;;;;;;6.40;5.80;;;;;;;;;;5032570;28;20077;-62
2021/10/03 01:48:45;;;;;;;4.85;4.72;;;;;;;;;;5031911;28;20056;-62
2021/10/03 01:51:14;;;;;;;4.88;4.78;;;;;;;;;;5029896;28;20045;-62
2021/10/03 01:53:42;;;;;;;5.63;5.43;;;;;;;;;;5033554;28;20485;-60
2021/10/03 01:56:10;;;;;;;5.80;5.30;;;;;;;;;;5031439;28;20060;-62
2021/10/03 01:58:39;;;;;;;7.30;6.75;;;;;;;;;;5031161;28;20071;-60
2021/10/03 02:01:07;;;;;;;7.03;6.72;;;;;;;;;;5032007;28;20057;-58
2021/10/03 02:03:35;;;;;;;5.60;5.35;;;;;;;;;;5029358;28;20063;-61
2021/10/03 02:06:01;;;;;;;6.93;6.45;;;;;;;;;;5031201;28;20600;-61
2021/10/03 02:08:28;;;;;;;5.90;5.68;;;;;;;;;;5027711;28;20792;-61
2021/10/03 02:10:55;;;;;;;5.80;5.43;;;;;;;;;;5029959;28;20061;-60
2021/10/03 02:13:22;;;;;;;5.63;5.25;;;;;;;;;;5022987;28;20091;-61
2021/10/03 02:15:50;;;;;;;6.68;6.35;;;;;;;;;;5023592;28;20401;-61
2021/10/03 02:18:17;;;;;;;5.95;5.55;;;;;;;;;;5031484;28;20158;-62
2021/10/03 02:20:45;;;;;;;7.00;5.93;;;;;;;;;;5029411;28;20436;-59
2021/10/03 02:23:13;;;;;;;6.35;5.78;;;;;;;;;;5029645;28;20059;-61
2021/10/03 02:25:47;;;;;;;6.40;5.78;;;;;;;;;;5032865;28;20064;-61
2021/10/03 02:28:16;;;;;;;7.20;6.65;;;;;;;;;;5030005;28;20041;-61
2021/10/03 02:30:43;;;;;;;6.10;5.80;;;;;;;;;;5031407;28;20046;-61
2021/10/03 02:33:10;;;;;;;8.10;7.40;;;;;;;;;;5030789;28;20084;-62
2021/10/03 02:35:40;;;;;;;7.20;6.90;;;;;;;;;;5030138;28;20609;-61
2021/10/03 02:38:09;;;;;;;7.25;6.85;;;;;;;;;;5031399;28;20047;-61
2021/10/03 02:40:35;;;;;;;8.40;7.60;;;;;;;;;;5030416;28;20050;-62
2021/10/03 02:43:05;;;;;;;7.22;6.68;;;;;;;;;;5030329;28;20041;-61
2021/10/03 02:45:34;;;;;;;8.00;7.53;;;;;;;;;;5031593;28;20386;-59
2021/10/03 02:48:01;;;;;;;9.02;8.20;;;;;;;;;;5029290;28;20064;-61
2021/10/03 02:50:28;;;;;;;8.13;7.45;;;;;;;;;;5031687;28;20704;-62
2021/10/03 02:52:55;;;;;;;9.32;8.55;;;;;;;;;;5029478;28;20034;-62
2021/10/03 02:55:22;;;;;;;9.65;8.18;;;;;;;;;;5030097;28;20099;-62
2021/10/03 02:57:48;;;;;;;8.25;7.65;;;;;;;;;;5032205;28;20136;-59
2021/10/03 03:00:15;;;;;;;6.57;6.38;;;;;;;;;;5030661;28;20045;-61
2021/10/03 03:02:42;;;;;;;6.88;6.50;;;;;;;;;;5031270;28;20124;-62
2021/10/03 03:05:10;;;;;;;7.13;6.72;;;;;;;;;;5028318;28;20033;-60
2021/10/03 03:07:37;;;;;;;5.95;5.75;;;;;;;;;;5029472;28;20045;-62
2021/10/03 03:10:06;;;;;;;6.80;6.50;;;;;;;;;;5026768;28;20057;-60
2021/10/03 03:12:32;;;;;;;9.07;8.23;;;;;;;;;;5023596;28;20543;-61
2021/10/03 03:14:59;;;;;;;7.80;7.07;;;;;;;;;;5031110;28;20041;-62
2021/10/03 03:17:26;;;;;;;8.10;7.50;;;;;;;;;;5030069;28;20065;-61
2021/10/03 03:19:53;;;;;;;7.53;6.95;;;;;;;;;;5028579;28;20483;-61
2021/10/03 03:22:19;;;;;;;7.85;7.40;;;;;;;;;;5031033;28;20045;-61
2021/10/03 03:24:46;;;;;;;7.95;7.38;;;;;;;;;;5025762;28;20053;-61
2021/10/03 03:27:13;;;;;;;8.48;7.75;;;;;;;;;;5022223;28;20034;-62
2021/10/03 03:29:40;;;;;;;7.38;6.93;;;;;;;;;;5030134;28;20042;-61
2021/10/03 03:32:06;;;;;;;6.85;6.50;;;;;;;;;;5029363;28;20041;-61
2021/10/03 03:34:33;;;;;;;7.78;6.82;;;;;;;;;;5031018;28;20162;-61
2021/10/03 03:37:00;;;;;;;7.25;6.78;;;;;;;;;;5029151;28;20103;-61
2021/10/03 03:39:27;;;;;;;7.72;7.35;;;;;;;;;;5024862;28;20045;-62
2021/10/03 03:41:53;;;;;;;8.80;7.82;;;;;;;;;;5029910;28;20461;-62
2021/10/03 03:44:20;;;;;;;8.88;8.18;;;;;;;;;;5029274;28;20041;-56
2021/10/03 03:46:47;;;;;;;12.43;8.32;;;;;;;;;;5030696;28;20033;-61
2021/10/03 03:49:14;;;;;;;8.18;7.47;;;;;;;;;;5028796;28;20083;-62
2021/10/03 03:51:40;;;;;;;9.25;8.75;;;;;;;;;;5029395;28;20065;-62
2021/10/03 03:54:07;;;;;;;9.88;8.95;;;;;;;;;;5031617;28;20072;-62
2021/10/03 03:56:34;;;;;;;10.52;9.60;;;;;;;;;;5023608;28;20068;-61
2021/10/03 03:59:01;;;;;;;16.13;10.15;;;;;;;;;;5030998;28;20073;-62
2021/10/03 04:01:27;;;;;;;23.58;11.40;;;;;;;;;;5028375;28;20478;-61
2021/10/03 04:03:54;;;;;;;39.58;11.23;;;;;;;;;;5029143;28;20547;-61
2021/10/03 04:06:21;;;;;;;31.65;12.88;;;;;;;;;;5031182;28;20037;-62
2021/10/03 04:08:48;;;;;;;79.28;10.68;;;;;;;;;;5028880;28;20096;-58
2021/10/03 04:11:15;;;;;;;25.45;8.50;;;;;;;;;;5022086;28;20042;-61
2021/10/03 04:13:42;;;;;;;27.48;10.65;;;;;;;;;;5029370;28;20048;-62
2021/10/03 04:16:09;;;;;;;21.88;9.32;;;;;;;;;;5028218;28;20045;-61
2021/10/03 04:18:36;;;;;;;9.63;8.40;;;;;;;;;;5030201;28;20040;-62
2021/10/03 04:21:03;;;;;;;69.15;8.88;;;;;;;;;;5027844;28;20739;-61
2021/10/03 04:23:30;;;;;;;6.57;6.18;;;;;;;;;;5030362;28;20481;-60
2021/10/03 04:25:57;;;;;;;16.70;6.57;;;;;;;;;;5030080;28;20080;-61
2021/10/03 04:28:25;;;;;;;55.58;9.02;;;;;;;;;;5030008;28;20121;-61
2021/10/03 04:30:53;;;;;;;27.52;6.18;;;;;;;;;;5030447;28;20073;-62
2021/10/03 04:33:19;;;;;;;7.13;6.68;;;;;;;;;;5031335;28;20382;-62
2021/10/03 04:35:46;;;;;;;35.30;7.15;;;;;;;;;;5033977;28;20088;-62
2021/10/03 04:38:13;;;;;;;16.73;6.88;;;;;;;;;;5033385;28;20486;-62
2021/10/03 04:40:40;;;;;;;8.88;6.97;;;;;;;;;;5032126;28;20098;-58
2021/10/03 04:43:07;;;;;;;36.15;7.40;;;;;;;;;;5033027;28;20470;-61
2021/10/03 04:45:34;;;;;;;6.38;5.97;;;;;;;;;;5032743;28;20038;-62
2021/10/03 04:48:01;;;;;;;83.50;7.90;;;;;;;;;;5032086;28;20034;-62
2021/10/03 04:50:28;;;;;;;35.63;6.85;;;;;;;;;;5034132;28;20540;-62
2021/10/03 04:52:55;;;;;;;67.20;6.68;;;;;;;;;;5034601;28;20048;-61
2021/10/03 04:55:22;;;;;;;5.65;5.43;;;;;;;;;;5033515;28;20561;-62
2021/10/03 04:57:49;;;;;;;22.88;5.80;;;;;;;;;;5031723;28;20069;-62
2021/10/03 05:00:15;;;;;;;145.57;8.45;;;;;;;;;;5033338;28;20045;-62
2021/10/03 05:02:42;;;;;;;53.45;7.25;;;;;;;;;;5034007;28;20437;-61
2021/10/03 05:05:09;;;;;;;41.45;6.50;;;;;;;;;;5031226;28;20065;-58
2021/10/03 05:07:35;;;;;;;55.35;8.18;;;;;;;;;;5033170;28;20029;-60
2021/10/03 05:10:03;;;;;;;57.55;6.03;;;;;;;;;;5031606;28;20657;-61
2021/10/03 05:12:31;;;;;;;6.97;6.65;;;;;;;;;;5031898;28;20029;-61
2021/10/03 05:14:58;;;;;;;2.88;2.78;;;;;;;;;;5033214;28;20042;-62
2021/10/03 05:17:25;;;;;;;58.45;6.97;;;;;;;;;;5032579;28;20042;-61
2021/10/03 05:19:52;;;;;;;63.40;7.65;;;;;;;;;;5032744;28;20041;-62
2021/10/03 05:22:19;;;;;;;96.10;8.85;;;;;;;;;;5031865;28;20050;-60
2021/10/03 05:24:45;;;;;;;82.63;7.68;;;;;;;;;;5031753;28;20050;-62
2021/10/03 05:27:12;;;;;;;57.90;7.50;;;;;;;;;;5029114;28;20057;-61
2021/10/03 05:29:39;;;;;;;121.88;9.85;;;;;;;;;;5025101;28;20071;-62
2021/10/03 05:32:05;;;;;;;8.45;6.38;;;;;;;;;;5015943;28;20109;-63
2021/10/03 05:34:32;;;;;;;5.82;5.65;;;;;;;;;;5031989;28;20359;-60
2021/10/03 05:36:59;;;;;;;49.70;7.35;;;;;;;;;;5031668;28;20042;-59
2021/10/03 05:39:26;;;;;;;20.92;5.97;;;;;;;;;;5031874;28;20091;-62
2021/10/03 05:41:52;;;;;;;21.88;6.53;;;;;;;;;;5031653;28;20051;-60
2021/10/03 05:44:19;;;;;;;34.47;7.03;;;;;;;;;;5029607;28;20052;-61
2021/10/03 05:46:46;;;;;;;50.05;7.70;;;;;;;;;;5031637;28;20180;-62
2021/10/03 05:49:13;;;;;;;28.83;7.80;;;;;;;;;;5030545;28;20038;-61
2021/10/03 05:51:40;;;;;;;50.72;9.40;;;;;;;;;;5031606;28;20034;-60
2021/10/03 05:54:08;;;;;;;74.88;8.20;;;;;;;;;;5029602;28;20378;-62
2021/10/03 05:56:35;;;;;;;7.55;6.85;;;;;;;;;;5025492;28;20433;-61
2021/10/03 05:59:03;;;;;;;8.55;8.13;;;;;;;;;;5032955;28;20129;-61
2021/10/03 06:01:30;;;;;;;9.23;7.90;;;;;;;;;;5029786;28;20041;-62
2021/10/03 06:03:57;;;;;;;27.10;8.85;;;;;;;;;;5032343;28;20498;-62
2021/10/03 06:06:24;;;;;;;9.73;6.47;;;;;;;;;;5029580;28;20076;-61
2021/10/03 06:08:54;;;;;;;13.68;7.30;;;;;;;;;;5031959;28;20029;-62
2021/10/03 06:11:21;;;;;;;7.78;7.05;;;;;;;;;;5031918;28;20076;-61
2021/10/03 06:13:48;;;;;;;7.00;6.60;;;;;;;;;;5030419;28;20064;-61
2021/10/03 06:16:14;;;;;;;5.32;5.13;;;;;;;;;;5031071;28;20359;-62
2021/10/03 06:18:41;;;;;;;5.53;5.03;;;;;;;;;;5029825;28;20073;-61
2021/10/03 06:21:15;;;;;;;5.88;5.40;;;;;;;;;;5031335;28;20474;-61
2021/10/03 06:23:43;;;;;;;6.38;6.03;;;;;;;;;;5031951;28;20520;-62
2021/10/03 06:26:11;;;;;;;36.28;8.35;;;;;;;;;;5031270;28;20552;-62
2021/10/03 06:28:38;;;;;;;20.90;9.40;;;;;;;;;;5030623;28;20072;-61
2021/10/03 06:31:04;;;;;;;34.25;9.63;;;;;;;;;;5025156;28;20041;-61
2021/10/03 06:33:31;;;;;;;12.23;7.30;;;;;;;;;;5020080;28;20462;-62
2021/10/03 06:35:58;;;;;;;10.10;9.13;;;;;;;;;;5031717;28;20136;-61
2021/10/03 06:38:25;;;;;;;85.53;10.70;;;;;;;;;;5029164;28;20041;-62
2021/10/03 06:40:52;;;;;;;108.78;11.68;;;;;;;;;;5026975;28;20506;-61
2021/10/03 06:43:18;;;;;;;43.92;11.15;;;;;;;;;;5030677;28;20056;-59
2021/10/03 06:45:45;;;;;;;152.57;13.38;;;;;;;;;;5031094;28;20107;-60
2021/10/03 06:48:12;;;;;;;262.23;19.38;;;;;;;;;;5031637;28;20575;-62
2021/10/03 06:50:39;;;;;;;310.02;22.10;;;;;;;;;;5028973;28;20096;-61
2021/10/03 06:53:06;;;;;;;115.53;13.40;;;;;;;;;;5029792;28;20454;-61
2021/10/03 06:55:33;;;;;;;56.22;11.00;;;;;;;;;;5029608;28;20120;-61
2021/10/03 06:58:00;;;;;;;169.60;15.00;;;;;;;;;;5029270;28;20074;-57
2021/10/03 07:00:27;;;;;;;80.82;11.38;;;;;;;;;;5031215;28;20042;-62
2021/10/03 07:02:55;;;;;;;51.42;8.80;;;;;;;;;;5028280;28;20037;-60
2021/10/03 07:05:21;;;;;;;7.47;7.18;;;;;;;;;;5028214;28;20049;-59
2021/10/03 07:07:48;;;;;;;19.88;7.80;;;;;;;;;;5029875;28;20045;-61
2021/10/03 07:10:15;;;;;;;7.80;7.18;;;;;;;;;;5028701;28;20099;-61
2021/10/03 07:12:41;;;;;;;84.10;10.25;;;;;;;;;;5021686;28;20087;-62
2021/10/03 07:15:08;;;;;;;40.00;7.95;;;;;;;;;;5026700;28;20048;-60
2021/10/03 07:17:35;;;;;;;100.85;9.60;;;;;;;;;;5029404;28;20121;-58
2021/10/03 07:20:02;;;;;;;12.52;7.72;;;;;;;;;;5030128;28;20121;-60
2021/10/03 07:22:29;;;;;;;30.30;7.70;;;;;;;;;;5028990;28;20493;-61
2021/10/03 07:24:56;;;;;;;58.08;8.38;;;;;;;;;;5031306;28;20548;-60
2021/10/03 07:27:22;;;;;;;12.75;7.22;;;;;;;;;;5027020;28;20073;-58
2021/10/03 07:29:49;;;;;;;37.47;8.18;;;;;;;;;;5029620;28;20145;-60
2021/10/03 07:32:16;;;;;;;13.13;6.93;;;;;;;;;;5030932;28;20042;-60
2021/10/03 07:34:43;;;;;;;18.38;6.72;;;;;;;;;;5029298;28;20077;-60
2021/10/03 07:37:10;;;;;;;10.50;5.97;;;;;;;;;;5030746;28;20042;-60
2021/10/03 07:39:37;;;;;;;6.68;6.30;;;;;;;;;;5028255;28;20064;-57
2021/10/03 07:42:04;;;;;;;6.82;6.53;;;;;;;;;;5017436;28;20049;-60
2021/10/03 07:44:31;;;;;;;6.78;6.38;;;;;;;;;;5031009;28;20053;-59
2021/10/03 07:46:58;;;;;;;7.72;7.22;;;;;;;;;;5029248;28;20034;-60
2021/10/03 07:49:25;;;;;;;6.97;6.50;;;;;;;;;;5029884;28;20083;-60
2021/10/03 07:51:51;;;;;;;6.70;6.45;;;;;;;;;;5029195;28;20034;-59
2021/10/03 07:54:18;;;;;;;5.82;5.63;;;;;;;;;;5030626;28;20038;-59
2021/10/03 07:56:45;;;;;;;6.03;5.72;;;;;;;;;;5030351;28;20664;-58
2021/10/03 07:59:12;;;;;;;7.43;6.93;;;;;;;;;;5027810;28;20046;-58
2021/10/03 08:01:38;;;;;;;6.00;5.75;;;;;;;;;;5029198;28;20095;-60
2021/10/03 08:04:05;;;;;;;6.97;6.57;;;;;;;;;;5029743;28;20045;-60
2021/10/03 08:06:32;;;;;;;7.57;6.82;;;;;;;;;;5030191;28;20156;-60
2021/10/03 08:08:59;;;;;;;6.70;6.30;;;;;;;;;;5034662;28;20577;-60
2021/10/03 08:11:26;;;;;;;6.55;6.35;;;;;;;;;;5031999;28;20034;-60
2021/10/03 08:13:53;;;;;;;6.03;5.72;;;;;;;;;;5035568;28;20080;-60
2021/10/03 08:16:20;;;;;;;7.38;6.97;;;;;;;;;;5032607;28;20041;-59
2021/10/03 08:18:47;;;;;;;6.80;6.50;;;;;;;;;;5031895;28;20644;-59
2021/10/03 08:21:15;;;;;;;6.28;5.95;;;;;;;;;;5034358;28;20079;-59
2021/10/03 08:23:42;;;;;;;6.25;5.75;;;;;;;;;;5033111;28;20083;-59
2021/10/03 08:26:10;;;;;;;5.43;5.18;;;;;;;;;;5031948;28;20038;-58
2021/10/03 08:28:37;;;;;;;4.95;4.65;;;;;;;;;;5034254;28;20045;-59
2021/10/03 08:31:04;;;;;;;6.38;5.78;;;;;;;;;;5033245;28;20042;-60
2021/10/03 08:33:31;;;;;;;5.60;5.30;;;;;;;;;;5022447;28;20072;-59
2021/10/03 08:35:58;;;;;;;6.15;5.75;;;;;;;;;;5033200;28;20045;-60
2021/10/03 08:38:25;;;;;;;5.53;5.00;;;;;;;;;;5033668;28;20041;-58
2021/10/03 08:40:51;;;;;;;5.20;5.00;;;;;;;;;;5033360;28;20077;-59
2021/10/03 08:43:18;;;;;;;5.43;4.90;;;;;;;;;;5030038;28;20049;-58
2021/10/03 08:45:45;;;;;;;5.55;5.13;;;;;;;;;;5033179;28;20073;-59
2021/10/03 08:48:13;;;;;;;4.75;4.45;;;;;;;;;;5027705;28;20049;-60
2021/10/03 08:50:40;;;;;;;4.80;4.60;;;;;;;;;;5022075;28;20061;-59
2021/10/03 08:53:07;;;;;;;3.83;3.63;;;;;;;;;;5033441;28;20049;-59
2021/10/03 08:55:34;;;;;;;3.97;3.78;;;;;;;;;;5033206;28;20041;-58
2021/10/03 08:58:01;;;;;;;5.15;4.80;;;;;;;;;;5013910;28;20129;-57
2021/10/03 09:00:28;;;;;;;5.82;3.97;;;;;;;;;;5033543;28;20417;-59
2021/10/03 09:03:04;;;;;;;4.60;4.30;;;;;;;;;;5032024;28;20153;-59
2021/10/03 09:05:33;;;;;;;5.57;5.00;;;;;;;;;;5033640;28;20129;-60
2021/10/03 09:08:02;;;;;;;3.85;3.45;;;;;;;;;;5031153;28;20053;-60
2021/10/03 09:10:43;;;;;;;2.25;2.05;;;;;;;;;;5033169;28;20033;-59
2021/10/03 09:13:09;;;;;;;2.05;1.60;;;;;;;;;;5021919;28;20092;-59
2021/10/03 09:15:36;;;;;;;1.88;1.73;;;;;;;;;;5030171;28;20056;-59
2021/10/03 09:18:04;;;;;;;2.25;2.15;;;;;;;;;;5026558;28;20140;-57
2021/10/03 09:20:31;;;;;;;2.83;2.63;;;;;;;;;;5028928;28;20079;-60
2021/10/03 09:23:00;;;;;;;2.22;2.13;;;;;;;;;;5030092;28;20436;-57
2021/10/03 09:25:34;;;;;;;1.50;1.40;;;;;;;;;;5030940;28;20406;-59
2021/10/03 09:28:01;;;;;;;2.13;2.03;;;;;;;;;;5031818;28;20037;-59
2021/10/03 09:30:28;;;;;;;1.70;1.60;;;;;;;;;;5028547;28;20474;-59
2021/10/03 09:32:56;;;;;;;2.03;1.90;;;;;;;;;;5032591;28;20113;-61
2021/10/03 09:35:24;;;;;;;3.05;1.90;;;;;;;;;;5030311;28;20041;-59
2021/10/03 09:37:51;;;;;;;6.35;1.85;;;;;;;;;;5020456;28;20057;-60
2021/10/03 09:40:18;;;;;;;1.30;1.30;;;;;;;;;;5030941;28;20045;-58
2021/10/03 09:42:52;;;;;;;14.07;3.47;;;;;;;;;;5030054;28;20494;-60
2021/10/03 09:45:23;;;;;;;81.28;10.65;;;;;;;;;;5026591;28;20457;-59
2021/10/03 09:48:06;;;;;;;1.70;1.60;;;;;;;;;;5033271;28;20091;-59
2021/10/03 09:50:33;;;;;;;1.38;1.15;;;;;;;;;;5032818;28;20082;-59
2021/10/03 09:53:01;;;;;;;16.17;3.58;;;;;;;;;;5028138;28;20025;-56
2021/10/03 09:55:28;;;;;;;2.40;1.73;;;;;;;;;;5027447;28;20128;-58
2021/10/03 09:57:55;;;;;;;1.55;1.55;;;;;;;;;;5023392;28;20355;-60
2021/10/03 10:00:24;;;;;;;1.73;1.63;;;;;;;;;;5024273;28;20049;-60
2021/10/03 10:02:51;;;;;;;2.20;2.00;;;;;;;;;;5023997;28;20025;-60
2021/10/03 10:05:22;;;;;;;1.35;1.25;;;;;;;;;;5029945;28;21006;-59
2021/10/03 10:07:49;;;;;;;1.73;1.63;;;;;;;;;;5025637;28;20092;-58
2021/10/03 10:10:16;;;;;;;2.08;1.25;;;;;;;;;;5023327;28;20243;-60
2021/10/03 10:12:45;;;;;;;2.15;1.20;;;;;;;;;;5025733;28;20037;-60
2021/10/03 10:15:13;;;;;;;1.05;1.02;;;;;;;;;;5026385;28;20125;-60
2021/10/03 10:17:40;;;;;;;1.05;1.05;;;;;;;;;;5024906;28;20042;-58
2021/10/03 10:20:13;;;;;;;1.20;1.10;;;;;;;;;;5028997;28;20128;-59
2021/10/03 10:22:41;;;;;;;;;;;;;;;;;;5032662;28;20121;-58
2021/10/03 10:25:11;;;;;;;1.20;1.02;;;;;;;;;;5028839;28;19921;-60
2021/10/03 10:27:37;;;;;;;1.15;1.10;;;;;;;;;;5025911;28;20096;-59
2021/10/03 10:30:06;;;;;;;1.23;1.20;;;;;;;;;;5027708;28;20082;-58
2021/10/03 10:32:33;;;;;;;1.35;1.35;;;;;;;;;;5035712;28;20041;-59
2021/10/03 10:35:09;;;;;;;1.98;1.10;;;;;;;;;;5030966;28;20100;-58
2021/10/03 10:37:53;;;;;;;1.20;1.10;;;;;;;;;;5029835;28;20498;-58
2021/10/03 10:42:57;;;;;;;1.33;1.13;;;;;;;;;;5027800;28;20727;-60
2021/10/03 10:45:27;;;;;;;1.15;1.15;;;;;;;;;;5029725;28;20432;-60
2021/10/03 10:48:08;;;;;;;1.92;1.58;;;;;;;;;;5030650;28;20098;-59
2021/10/03 10:51:01;;;;;;;1.10;1.10;;;;;;;;;;5025217;28;20041;-59
2021/10/03 10:53:32;;;;;;;2.00;1.45;;;;;;;;;;5013868;28;20077;-59
2021/10/03 10:56:09;;;;;;;2.10;1.30;;;;;;;;;;5028656;28;20076;-60
2021/10/03 10:58:37;;;;;;;1.23;1.23;;;;;;;;;;5028064;28;20045;-59
2021/10/03 11:01:12;;;;;;;2.30;1.20;;;;;;;;;;5028843;28;20061;-59
2021/10/03 11:03:41;;;;;;;1.85;1.08;;;;;;;;;;5017097;28;20042;-60
2021/10/03 11:06:10;;;;;;;4.90;1.10;;;;;;;;;;5023464;28;20117;-57
2021/10/03 11:08:55;;;;;;;0.95;0.95;;;;;;;;;;5030057;28;20029;-60
2021/10/03 11:11:22;;;;;;;1.25;1.15;;;;;;;;;;5030772;28;20046;-60
2021/10/03 11:13:59;;;;;;;2.45;1.13;;;;;;;;;;5030630;28;20052;-60
2021/10/03 11:16:42;;;;;;;1.30;1.20;;;;;;;;;;5028890;28;20037;-58
2021/10/03 11:19:10;;;;;;;1.33;1.05;;;;;;;;;;5030595;28;20429;-59
2021/10/03 11:21:38;;;;;;;1.10;1.00;;;;;;;;;;5029934;28;20046;-60
2021/10/03 11:24:09;;;;;;;1.52;1.52;;;;;;;;;;5030893;28;20522;-60
2021/10/03 11:26:47;;;;;;;1.20;1.10;;;;;;;;;;5027933;28;20045;-58
2021/10/03 11:29:14;;;;;;;2.08;1.52;;;;;;;;;;5030390;28;20037;-59
2021/10/03 11:31:47;;;;;;;1.10;1.00;;;;;;;;;;5017321;28;20092;-61
2021/10/03 11:34:34;;;;;;;1.13;1.10;;;;;;;;;;5023898;28;20037;-60
2021/10/03 11:37:02;;;;;;;1.55;1.00;;;;;;;;;;5014389;28;20034;-59
2021/10/03 11:39:40;;;;;;;1.38;0.93;;;;;;;;;;5029547;28;20088;-59
2021/10/03 11:42:09;;;;;;;1.33;1.00;;;;;;;;;;5031295;28;20070;-59
2021/10/03 11:44:38;;;;;;;1.20;1.10;;;;;;;;;;5016695;28;20042;-59
2021/10/03 11:47:06;;;;;;;1.73;1.30;;;;;;;;;;5034358;28;20038;-60
2021/10/03 11:49:34;;;;;;;4.57;1.25;;;;;;;;;;5034175;28;20537;-60
2021/10/03 11:52:01;;;;;;;1.05;0.95;;;;;;;;;;5035078;28;20037;-59
2021/10/03 11:54:28;;;;;;;1.10;1.10;;;;;;;;;;5033839;28;20128;-60
2021/10/03 11:56:55;;;;;;;1.00;1.00;;;;;;;;;;5023004;28;20061;-60
2021/10/03 11:59:22;;;;;;;1.02;1.00;;;;;;;;;;5034151;28;20123;-60
2021/10/03 12:01:49;;;;;;;1.00;1.00;;;;;;;;;;5032808;28;20480;-60
2021/10/03 12:04:25;;;;;;;1.00;1.00;;;;;;;;;;5021607;28;20714;-60
2021/10/03 12:06:52;;;;;;;1.05;1.05;;;;;;;;;;5030657;28;20049;-60
2021/10/03 12:09:21;;;;;;;0.98;0.98;;;;;;;;;;5031978;28;20084;-61
2021/10/03 12:11:49;;;;;;;1.30;1.10;;;;;;;;;;5033807;28;20537;-60
2021/10/03 12:14:15;;;;;;;1.00;1.00;;;;;;;;;;5032898;28;20041;-59
2021/10/03 12:16:52;;;;;;;1.20;1.20;;;;;;;;;;5030667;28;20103;-60
2021/10/03 12:19:19;;;;;;;1.92;1.00;;;;;;;;;;5030983;28;20048;-59
2021/10/03 12:21:46;;;;;;;1.10;1.00;;;;;;;;;;5032345;28;20437;-60
2021/10/03 12:24:12;;;;;;;3.15;1.40;;;;;;;;;;5022339;28;20088;-60
2021/10/03 12:26:42;;;;;;;1.00;1.00;;;;;;;;;;5030682;28;20045;-57
2021/10/03 12:29:13;;;;;;;1.13;1.05;;;;;;;;;;5026157;28;20087;-60
2021/10/03 12:31:45;;;;;;;1.10;1.10;;;;;;;;;;5031612;28;20040;-60
2021/10/03 12:34:15;;;;;;;1.08;1.00;;;;;;;;;;5030186;28;20038;-60
2021/10/03 12:37:04;;;;;;;1.08;1.00;;;;;;;;;;5034312;28;20136;-60
2021/10/03 12:39:36;;;;;;;0.90;0.90;;;;;;;;;;5032955;28;20038;-59
2021/10/03 12:42:05;;;;;;;3.17;1.35;;;;;;;;;;5024770;28;20098;-60
2021/10/03 12:44:34;;;;;;;2.35;1.90;;;;;;;;;;5033859;28;20486;-60
2021/10/03 12:47:02;;;;;;;1.20;1.10;;;;;;;;;;5031754;28;20037;-59
2021/10/03 12:49:29;;;;;;;1.13;0.90;;;;;;;;;;5033585;28;20493;-59
2021/10/03 12:51:56;;;;;;;0.98;0.98;;;;;;;;;;5025616;28;20097;-60
2021/10/03 12:54:23;;;;;;;1.33;1.33;;;;;;;;;;5020361;28;20029;-59
2021/10/03 12:56:50;;;;;;;1.00;1.00;;;;;;;;;;5019019;28;20112;-60
2021/10/03 12:59:16;;;;;;;0.90;0.90;;;;;;;;;;5028491;28;20494;-58
2021/10/03 13:01:46;;;;;;;0.90;0.90;;;;;;;;;;5026939;28;20536;-59
2021/10/03 13:04:14;;;;;;;0.90;0.90;;;;;;;;;;5027431;28;20049;-60
2021/10/03 13:06:40;;;;;;;2.30;1.42;;;;;;;;;;5031726;28;20494;-58
2021/10/03 13:09:07;;;;;;;0.90;0.90;;;;;;;;;;5029403;28;20088;-60
2021/10/03 13:11:34;;;;;;;2.05;1.15;;;;;;;;;;5029642;28;20124;-62
2021/10/03 13:14:01;;;;;;;1.00;1.00;;;;;;;;;;5025258;28;20092;-59
2021/10/03 13:16:29;;;;;;;1.17;1.00;;;;;;;;;;5030736;28;20084;-57
2021/10/03 13:18:56;;;;;;;1.20;1.10;;;;;;;;;;5031368;28;20064;-60
2021/10/03 13:21:23;;;;;;;1.10;1.10;;;;;;;;;;5022037;28;20145;-59
2021/10/03 13:23:50;;;;;;;1.20;1.20;;;;;;;;;;5029203;28;20120;-59
2021/10/03 13:26:19;;;;;;;1.05;1.05;;;;;;;;;;5029797;28;20046;-60
2021/10/03 13:28:47;;;;;;;1.38;1.30;;;;;;;;;;5031737;28;20140;-60
2021/10/03 13:31:14;;;;;;;2.08;1.30;;;;;;;;;;5027313;28;20124;-60
2021/10/03 13:33:41;;;;;;;1.42;1.10;;;;;;;;;;5027564;28;20133;-59
2021/10/03 13:36:08;;;;;;;0.93;0.90;;;;;;;;;;5028370;28;20037;-58
2021/10/03 13:38:35;;;;;;;0.95;0.93;;;;;;;;;;5026898;28;20137;-54
2021/10/03 13:41:02;;;;;;;4.63;0.98;;;;;;;;;;5024325;28;20042;-59
2021/10/03 13:43:29;;;;;;;1.58;0.90;;;;;;;;;;5022104;28;20061;-60
2021/10/03 13:45:56;;;;;;;1.02;0.88;;;;;;;;;;5028087;28;20049;-59
2021/10/03 13:48:23;;;;;;;1.60;0.90;;;;;;;;;;5027971;28;20125;-59
2021/10/03 13:50:49;;;;;;;1.00;1.00;;;;;;;;;;5030363;28;20133;-60
2021/10/03 13:53:16;;;;;;;1.10;0.90;;;;;;;;;;5029161;28;20044;-59
2021/10/03 13:55:43;;;;;;;0.80;0.80;;;;;;;;;;5028239;28;20072;-59
2021/10/03 13:58:10;;;;;;;0.80;0.80;;;;;;;;;;5030482;28;20041;-59
2021/10/03 14:00:36;;;;;;;0.80;0.80;;;;;;;;;;5029375;28;20111;-60
2021/10/03 14:03:03;;;;;;;2.00;1.77;;;;;;;;;;5030821;28;20075;-59
2021/10/03 14:05:31;;;;;;;1.77;0.80;;;;;;;;;;5029633;28;20152;-59
2021/10/03 14:07:58;;;;;;;1.63;0.80;;;;;;;;;;5030644;28;20076;-60
2021/10/03 14:10:24;;;;;;;0.82;0.80;;;;;;;;;;5030101;28;20061;-59
2021/10/03 14:12:51;;;;;;;0.70;0.70;;;;;;;;;;5028589;28;20069;-57
2021/10/03 14:15:18;;;;;;;0.70;0.70;;;;;;;;;;5027527;28;20061;-59
2021/10/03 14:17:47;;;;;;;0.80;0.80;;;;;;;;;;5031594;28;20132;-59
2021/10/03 14:20:15;;;;;;;0.70;0.70;;;;;;;;;;5027473;28;20036;-58
2021/10/03 14:22:42;;;;;;;0.80;0.80;;;;;;;;;;5028119;28;20068;-59
2021/10/03 14:25:09;;;;;;;0.77;0.77;;;;;;;;;;5026046;28;20073;-58
2021/10/03 14:27:37;;;;;;;0.70;0.70;;;;;;;;;;5022026;28;20885;-60
2021/10/03 14:30:04;;;;;;;0.82;0.70;;;;;;;;;;5030078;28;20367;-60
2021/10/03 14:32:31;;;;;;;2.47;0.70;;;;;;;;;;5028776;28;20091;-60
2021/10/03 14:34:58;;;;;;;0.70;0.70;;;;;;;;;;5030578;28;20091;-59
2021/10/03 14:37:25;;;;;;;0.85;0.70;;;;;;;;;;5024129;28;20121;-59
2021/10/03 14:39:52;;;;;;;0.70;0.70;;;;;;;;;;5019164;28;20499;-59
2021/10/03 14:42:18;;;;;;;0.70;0.70;;;;;;;;;;5025858;28;20049;-60
2021/10/03 14:44:45;;;;;;;1.20;0.60;;;;;;;;;;5023918;28;20136;-59
2021/10/03 14:47:12;;;;;;;0.70;0.70;;;;;;;;;;5030291;28;20129;-60